LGAVLGSA

Guest
Details From LGAV - Athens Intl Airport Elefterios Venizel
To LGSA - Khania Souda
Flight Number -
Tags decoded
Created
Modified
Stats Distance 145 nm / 268 km
Max Altitude 0 ft / 0 m
Waypoints 2
Social Downloads 1
Likes 0
Share VATSIM

Download

Looking for another format? Having issues loading an existing format? Contact us
Advertisement - Login to hide

Notes

Requested: LGAV MANOK LGSA

Route

LGAV LGSA

ID Type Via Altitude Latitude Longitude Leg Dist Tot Dist Heading (true) Name
O LGAV APT - 0 ft / 0 m 37.93636˚ 23.94447˚ - 0 nm - Athens Intl Airport Elefterios Venizel
O LGSA APT - 0 ft / 0 m 35.53159˚ 24.15118˚ 144 nm 144 nm 176° / 176° Khania Souda

Altitude Profile

Advertisement - Login to hide

LGAV

Details ICAO LGAV (ATH)
Name Athens Intl Airport Elefterios Venizel
Region Greece
Timezone Europe/Athens (UTC+3.0)
Stats Elevation 308 ft / 94 m (AMSL)
Location 37.936357° 23.944470°
Runways 2
Magnetic Variation 4.528° E

METAR

LGAV 271720Z 36008KT 9999 FEW035 24/12 Q1015 NOSIG

Decode

TAF

TAF TAF LGAV 271100Z 2712/2812 01020G30KT 9999 FEW020 BKN035 BECMG 2716/2718 02015KT FEW030 BECMG 2804/2806 02017G27KT

Decode

Departure Runways

ID Width Length Bearing (true) Bearing (mag) Surface Threshold Offset Overrun Length
03L 148 ft / 45 m 12,474 ft / 3,802 m 36.51° 31.98° Asphalt 984 ft / 300 m 393 ft / 120 m
03R 148 ft / 45 m 13,131 ft / 4,002 m 36.52° 31.99° Asphalt 984 ft / 300 m 393 ft / 120 m
21L 148 ft / 45 m 13,131 ft / 4,002 m 216.54° 212.01° Asphalt 984 ft / 300 m 393 ft / 120 m
21R 148 ft / 45 m 12,474 ft / 3,802 m 216.53° 212.00° Asphalt 984 ft / 300 m 393 ft / 120 m

LGSA

Details ICAO LGSA (CHQ)
Name Khania Souda
Region Greece
Timezone Europe/Athens (UTC+3.0)
Stats Elevation 490 ft / 149 m (AMSL)
Location 35.531592° 24.151184°
Runways 1
Magnetic Variation 4.325° E

METAR

LGSA 271720Z /////KT 9999 FEW018 22/18 Q1014

Decode

TAF

TAF LGSA 271100Z 2712/2812 34015KT 9999 SCT020 BKN030 PROB30 TEMPO 2712/2718 5000 SHRA SCT016 FEW018CB BKN030

Decode

Destination Runways

ID Width Length Bearing (true) Bearing (mag) Surface Threshold Offset Overrun Length
11 148 ft / 45 m 10,967 ft / 3,343 m 111.40° 107.07° Asphalt 0 ft / 0 m 735 ft / 224 m
29 148 ft / 45 m 10,967 ft / 3,343 m 291.42° 287.09° Asphalt 0 ft / 0 m 900 ft / 274 m

Popular Alternatives